Kenton, OH (43326)

8:14 PM EDT on September 28, 2016 (GMT -0400)
rushslyvania | | Change Station

Elev 1079 ft 40.53 °N, 83.63 °W | Updated 12 minutes ago

Mostly Cloudy
Mostly Cloudy
55.6 °F
Feels Like 55.6 °F
N
0.0
Wind Variable Wind from SW

Today
High -- | Low -- °F
--% Chance of Precip.
Yesterday
High -- | Low -- °F
Precip. -- in
Pressure 29.93 in
Visibility 10.0 miles
Clouds Mostly Cloudy 1200 ft
Mostly Cloudy 1800 ft
Mostly Cloudy 4700 ft
Dew Point 55 °F
Humidity 99%
Rainfall 1.05 in
Snow Depth Not available.
7:28 AM 7:20 PM
Waning Crescent, 4% visible
METAR KEDJ 282345Z AUTO 00000KT 10SM BKN012 BKN018 BKN047 13/13 A2993 RMK AO1
Pressure 29.93 in
Visibility 10.0 miles
Clouds Mostly Cloudy 1200 ft
Mostly Cloudy 1800 ft
Mostly Cloudy 4700 ft
Dew Point 55 °F
Humidity 99%
Rainfall 1.05 in
Snow Depth Not available.
7:28 AM 7:20 PM
Waning Crescent, 4% visible
METAR KEDJ 282345Z AUTO 00000KT 10SM BKN012 BKN018 BKN047 13/13 A2993 RMK AO1

10-Day Weather Forecast

Almanac

Astronomy

Sep. 28, 2016 Rise Set
Actual Time
Civil Twilight
Nautical Twilight
Astronomical Twilight
Moon
Length of Visible Light
Length of Day
Tomorrow will be .
, % of the Moon is Illuminated

Today's Extremes

State Highs State Lows

Community

WunderPhotos

Upload Photos

1,942,356 photos uploaded!

WunderBlog® & News

Nearby

Air Quality

  Air Quality AQ Index Pollutant
Not available.

Snow Depth

Station Depth Elevation

Earthquake Activity

City Distance Mag. Time & Date
Minimum magnitude displayed is 2.5.

Coastal Water Temperatures

Place Temperature

Stations

Nearby Weather Stations

Station Location Temp. Windchill Dew Point Humidity Wind Precip. Elev Updated Type
                   

Watches & Warnings

There are currently no watches in effect.